Weather at Arnissa Airfield

Public forecast

Using degrees Celsius for public forecast. Weather courtesy of forecast.io.

Closest aviation weather report (METAR) to Arnissa Airfield

Closest report is Kozani National Airport Filippos, 33.3 nm (61.7 km) S.

2024/06/19 07:50 (retrieved 11 minutes ago)

LGKZ 190750Z 00000KT CAVOK 30/10 Q1021

Closest aviation forecast (TAF) to Arnissa Airfield

Closest forecast is Ohrid St. Paul the Apostle Airport, 53.1 nm (98.3 km) WNW.

2024/06/19 06:13 (retrieved 2 hours ago)

TAF LWOH 190510Z 1906/2006 VRB02KT CAVOK